sensor_id;sensor_type;location;lat;lon;timestamp;P1;durP1;ratioP1;P2;durP2;ratioP2
15641;SDS011;7920;42.524;27.448;2022-12-18T13:07:19;11.33;;;7.40;;
15641;SDS011;7920;42.524;27.448;2022-12-18T13:12:56;10.63;;;6.33;;
15641;SDS011;7920;42.524;27.448;2022-12-18T13:15:27;14.83;;;8.03;;
15641;SDS011;7920;42.524;27.448;2022-12-18T13:18:16;15.57;;;8.63;;
15641;SDS011;7920;42.524;27.448;2022-12-18T13:20:49;6.37;;;3.70;;
15641;SDS011;7920;42.524;27.448;2022-12-18T13:23:33;14.07;;;8.03;;
15641;SDS011;7920;42.524;27.448;2022-12-18T13:29:03;13.00;;;6.80;;
15641;SDS011;7920;42.524;27.448;2022-12-18T13:34:45;20.13;;;11.10;;
15641;SDS011;7920;42.524;27.448;2022-12-18T13:43:30;7.27;;;4.17;;
15641;SDS011;7920;42.524;27.448;2022-12-18T13:46:05;15.50;;;7.20;;
15641;SDS011;7920;42.524;27.448;2022-12-18T13:48:52;10.90;;;7.33;;
15641;SDS011;7920;42.524;27.448;2022-12-18T13:51:26;20.90;;;9.33;;
15641;SDS011;7920;42.524;27.448;2022-12-18T13:53:58;14.33;;;8.17;;
15641;SDS011;7920;42.524;27.448;2022-12-18T13:56:31;9.70;;;6.83;;
15641;SDS011;7920;42.524;27.448;2022-12-18T13:59:09;9.80;;;5.83;;
15641;SDS011;7920;42.524;27.448;2022-12-18T14:01:46;10.47;;;6.93;;
15641;SDS011;7920;42.524;27.448;2022-12-18T14:04:20;10.93;;;4.83;;
15641;SDS011;7920;42.524;27.448;2022-12-18T14:06:53;8.80;;;4.87;;
15641;SDS011;7920;42.524;27.448;2022-12-18T14:09:28;3.07;;;2.77;;
15641;SDS011;7920;42.524;27.448;2022-12-18T14:11:59;2.67;;;1.70;;
15641;SDS011;7920;42.524;27.448;2022-12-18T14:14:52;2.67;;;2.53;;
15641;SDS011;7920;42.524;27.448;2022-12-18T14:17:23;5.50;;;3.40;;
15641;SDS011;7920;42.524;27.448;2022-12-18T14:19:53;8.17;;;3.97;;
15641;SDS011;7920;42.524;27.448;2022-12-18T14:22:24;1.67;;;1.57;;
15641;SDS011;7920;42.524;27.448;2022-12-18T14:25:13;8.97;;;7.37;;
15641;SDS011;7920;42.524;27.448;2022-12-18T14:27:46;8.23;;;5.83;;
15641;SDS011;7920;42.524;27.448;2022-12-18T14:30:27;2.00;;;1.80;;
15641;SDS011;7920;42.524;27.448;2022-12-18T14:33:01;3.37;;;2.67;;
15641;SDS011;7920;42.524;27.448;2022-12-18T14:35:32;6.97;;;3.97;;
15641;SDS011;7920;42.524;27.448;2022-12-18T14:40:59;11.83;;;5.27;;
15641;SDS011;7920;42.524;27.448;2022-12-18T14:43:31;9.47;;;5.33;;
15641;SDS011;7920;42.524;27.448;2022-12-18T14:46:06;14.63;;;4.90;;
15641;SDS011;7920;42.524;27.448;2022-12-18T14:48:57;12.87;;;7.30;;
15641;SDS011;7920;42.524;27.448;2022-12-18T14:51:28;12.63;;;6.50;;
15641;SDS011;7920;42.524;27.448;2022-12-18T14:54:00;11.60;;;6.40;;
15641;SDS011;7920;42.524;27.448;2022-12-18T14:56:34;18.50;;;11.33;;
15641;SDS011;7920;42.524;27.448;2022-12-18T14:59:12;20.97;;;11.40;;
15641;SDS011;7920;42.524;27.448;2022-12-18T15:01:54;21.40;;;9.23;;
15641;SDS011;7920;42.524;27.448;2022-12-18T15:04:31;15.03;;;9.33;;
15641;SDS011;7920;42.524;27.448;2022-12-18T15:07:09;13.63;;;7.87;;
15641;SDS011;7920;42.524;27.448;2022-12-18T15:09:43;16.63;;;8.77;;
15641;SDS011;7920;42.524;27.448;2022-12-18T15:12:32;8.73;;;5.20;;
15641;SDS011;7920;42.524;27.448;2022-12-18T15:15:05;8.67;;;5.77;;
15641;SDS011;7920;42.524;27.448;2022-12-18T15:17:58;4.30;;;2.97;;
15641;SDS011;7920;42.524;27.448;2022-12-18T15:20:29;11.47;;;6.63;;
15641;SDS011;7920;42.524;27.448;2022-12-18T15:23:02;3.93;;;2.67;;
15641;SDS011;7920;42.524;27.448;2022-12-18T15:25:33;16.77;;;7.37;;
15641;SDS011;7920;42.524;27.448;2022-12-18T15:28:13;6.40;;;3.87;;
15641;SDS011;7920;42.524;27.448;2022-12-18T15:33:37;2.73;;;2.53;;
15641;SDS011;7920;42.524;27.448;2022-12-18T15:36:10;4.67;;;3.87;;
15641;SDS011;7920;42.524;27.448;2022-12-18T15:38:45;7.70;;;2.43;;
15641;SDS011;7920;42.524;27.448;2022-12-18T15:41:17;5.67;;;0.87;;
15641;SDS011;7920;42.524;27.448;2022-12-18T15:43:51;7.60;;;4.03;;
15641;SDS011;7920;42.524;27.448;2022-12-18T15:46:20;4.33;;;4.03;;
15641;SDS011;7920;42.524;27.448;2022-12-18T15:48:54;12.13;;;7.50;;
15641;SDS011;7920;42.524;27.448;2022-12-18T15:51:28;13.23;;;6.33;;
15641;SDS011;7920;42.524;27.448;2022-12-18T15:54:02;12.10;;;5.50;;
15641;SDS011;7920;42.524;27.448;2022-12-18T15:56:34;9.20;;;5.87;;
15641;SDS011;7920;42.524;27.448;2022-12-18T15:59:17;3.50;;;2.23;;
15641;SDS011;7920;42.524;27.448;2022-12-18T16:01:49;12.03;;;6.57;;
15641;SDS011;7920;42.524;27.448;2022-12-18T16:04:24;7.90;;;4.10;;
15641;SDS011;7920;42.524;27.448;2022-12-18T16:06:54;6.17;;;4.93;;
15641;SDS011;7920;42.524;27.448;2022-12-18T16:09:40;12.03;;;4.63;;
15641;SDS011;7920;42.524;27.448;2022-12-18T16:12:14;8.73;;;3.83;;
15641;SDS011;7920;42.524;27.448;2022-12-18T16:14:46;1.17;;;1.17;;
15641;SDS011;7920;42.524;27.448;2022-12-18T16:17:17;8.13;;;4.40;;
15641;SDS011;7920;42.524;27.448;2022-12-18T16:19:50;15.17;;;3.83;;
15641;SDS011;7920;42.524;27.448;2022-12-18T16:22:21;1.57;;;1.47;;
15641;SDS011;7920;42.524;27.448;2022-12-18T16:24:53;9.23;;;5.13;;
15641;SDS011;7920;42.524;27.448;2022-12-18T16:27:25;12.97;;;6.00;;
15641;SDS011;7920;42.524;27.448;2022-12-18T16:29:55;5.13;;;3.63;;
15641;SDS011;7920;42.524;27.448;2022-12-18T16:32:25;6.37;;;5.17;;
15641;SDS011;7920;42.524;27.448;2022-12-18T16:35:01;16.90;;;9.00;;
15641;SDS011;7920;42.524;27.448;2022-12-18T16:37:32;9.90;;;4.63;;
15641;SDS011;7920;42.524;27.448;2022-12-18T16:40:02;8.43;;;5.10;;
15641;SDS011;7920;42.524;27.448;2022-12-18T16:42:35;2.73;;;2.50;;
15641;SDS011;7920;42.524;27.448;2022-12-18T16:45:06;6.13;;;5.30;;
15641;SDS011;7920;42.524;27.448;2022-12-18T16:47:38;9.63;;;6.23;;
15641;SDS011;7920;42.524;27.448;2022-12-18T16:50:11;6.00;;;4.10;;
15641;SDS011;7920;42.524;27.448;2022-12-18T16:52:41;4.33;;;3.97;;
15641;SDS011;7920;42.524;27.448;2022-12-18T16:55:11;7.43;;;5.40;;
15641;SDS011;7920;42.524;27.448;2022-12-18T16:57:41;11.07;;;5.47;;
15641;SDS011;7920;42.524;27.448;2022-12-18T17:00:12;46.63;;;6.57;;
15641;SDS011;7920;42.524;27.448;2022-12-18T17:02:43;11.33;;;4.63;;
15641;SDS011;7920;42.524;27.448;2022-12-18T17:05:17;11.57;;;6.20;;
15641;SDS011;7920;42.524;27.448;2022-12-18T17:07:47;17.17;;;9.90;;
15641;SDS011;7920;42.524;27.448;2022-12-18T17:10:17;11.90;;;8.33;;
15641;SDS011;7920;42.524;27.448;2022-12-18T17:12:47;12.03;;;6.83;;
15641;SDS011;7920;42.524;27.448;2022-12-18T17:15:19;7.63;;;4.80;;
15641;SDS011;7920;42.524;27.448;2022-12-18T17:17:49;14.60;;;7.30;;
15641;SDS011;7920;42.524;27.448;2022-12-18T17:20:23;10.30;;;6.32;;
15641;SDS011;7920;42.524;27.448;2022-12-18T17:22:54;6.13;;;5.13;;
15641;SDS011;7920;42.524;27.448;2022-12-18T17:25:25;8.37;;;4.93;;
15641;SDS011;7920;42.524;27.448;2022-12-18T17:27:55;6.73;;;6.10;;
15641;SDS011;7920;42.524;27.448;2022-12-18T17:30:25;4.97;;;2.80;;
15641;SDS011;7920;42.524;27.448;2022-12-18T17:32:55;1.37;;;1.27;;
15641;SDS011;7920;42.524;27.448;2022-12-18T17:35:29;6.75;;;3.40;;
15641;SDS011;7920;42.524;27.448;2022-12-18T17:37:59;6.07;;;3.87;;
15641;SDS011;7920;42.524;27.448;2022-12-18T17:40:29;3.33;;;2.33;;
15641;SDS011;7920;42.524;27.448;2022-12-18T17:43:01;5.53;;;2.50;;
15641;SDS011;7920;42.524;27.448;2022-12-18T17:45:33;1.63;;;1.50;;
15641;SDS011;7920;42.524;27.448;2022-12-18T17:48:04;4.70;;;2.43;;
15641;SDS011;7920;42.524;27.448;2022-12-18T17:50:37;5.13;;;3.23;;
15641;SDS011;7920;42.524;27.448;2022-12-18T17:53:07;5.30;;;4.10;;
15641;SDS011;7920;42.524;27.448;2022-12-18T17:55:38;3.10;;;2.90;;
15641;SDS011;7920;42.524;27.448;2022-12-18T17:58:08;0.20;;;0.20;;
15641;SDS011;7920;42.524;27.448;2022-12-18T18:00:38;5.73;;;3.20;;
15641;SDS011;7920;42.524;27.448;2022-12-18T18:03:08;2.20;;;2.00;;
15641;SDS011;7920;42.524;27.448;2022-12-18T18:05:41;0.40;;;0.17;;
15641;SDS011;7920;42.524;27.448;2022-12-18T18:08:12;1.70;;;1.33;;
15641;SDS011;7920;42.524;27.448;2022-12-18T18:10:42;3.27;;;1.37;;
15641;SDS011;7920;42.524;27.448;2022-12-18T18:13:17;0.73;;;0.50;;
15641;SDS011;7920;42.524;27.448;2022-12-18T18:16:07;9.83;;;2.00;;
15641;SDS011;7920;42.524;27.448;2022-12-18T18:18:38;3.70;;;2.63;;
15641;SDS011;7920;42.524;27.448;2022-12-18T18:21:11;3.20;;;2.33;;
15641;SDS011;7920;42.524;27.448;2022-12-18T18:23:41;1.93;;;1.50;;
15641;SDS011;7920;42.524;27.448;2022-12-18T18:26:14;2.13;;;0.60;;
15641;SDS011;7920;42.524;27.448;2022-12-18T18:28:44;4.63;;;3.07;;
15641;SDS011;7920;42.524;27.448;2022-12-18T18:31:14;4.80;;;3.20;;
15641;SDS011;7920;42.524;27.448;2022-12-18T18:33:44;5.50;;;2.60;;
15641;SDS011;7920;42.524;27.448;2022-12-18T18:36:18;2.00;;;1.80;;
15641;SDS011;7920;42.524;27.448;2022-12-18T18:38:48;0.43;;;0.30;;
15641;SDS011;7920;42.524;27.448;2022-12-18T18:41:18;3.00;;;0.73;;
15641;SDS011;7920;42.524;27.448;2022-12-18T18:43:53;2.97;;;1.80;;
15641;SDS011;7920;42.524;27.448;2022-12-18T18:46:24;5.17;;;3.47;;
15641;SDS011;7920;42.524;27.448;2022-12-18T18:48:56;14.20;;;2.17;;
15641;SDS011;7920;42.524;27.448;2022-12-18T18:51:29;7.70;;;6.53;;
15641;SDS011;7920;42.524;27.448;2022-12-18T18:54:00;5.03;;;4.30;;
15641;SDS011;7920;42.524;27.448;2022-12-18T18:56:31;2.43;;;1.97;;
15641;SDS011;7920;42.524;27.448;2022-12-18T18:59:21;11.13;;;6.40;;
15641;SDS011;7920;42.524;27.448;2022-12-18T19:01:57;3.87;;;3.37;;
15641;SDS011;7920;42.524;27.448;2022-12-18T19:04:30;13.87;;;7.03;;
15641;SDS011;7920;42.524;27.448;2022-12-18T19:07:13;15.80;;;8.90;;
15641;SDS011;7920;42.524;27.448;2022-12-18T19:09:56;11.00;;;6.30;;
15641;SDS011;7920;42.524;27.448;2022-12-18T19:12:32;16.40;;;9.60;;
15641;SDS011;7920;42.524;27.448;2022-12-18T19:15:15;16.23;;;8.53;;
15641;SDS011;7920;42.524;27.448;2022-12-18T19:17:45;11.43;;;7.87;;
15641;SDS011;7920;42.524;27.448;2022-12-18T19:20:16;9.33;;;5.53;;
15641;SDS011;7920;42.524;27.448;2022-12-18T19:22:49;14.23;;;6.13;;
15641;SDS011;7920;42.524;27.448;2022-12-18T19:25:21;9.83;;;6.07;;
15641;SDS011;7920;42.524;27.448;2022-12-18T19:28:07;11.97;;;6.90;;
15641;SDS011;7920;42.524;27.448;2022-12-18T19:30:47;15.00;;;5.23;;
15641;SDS011;7920;42.524;27.448;2022-12-18T19:33:25;2.87;;;2.17;;
15641;SDS011;7920;42.524;27.448;2022-12-18T19:36:10;4.93;;;1.73;;
15641;SDS011;7920;42.524;27.448;2022-12-18T19:38:44;12.07;;;6.90;;
15641;SDS011;7920;42.524;27.448;2022-12-18T19:41:16;4.72;;;3.20;;
15641;SDS011;7920;42.524;27.448;2022-12-18T19:43:47;5.87;;;4.77;;
15641;SDS011;7920;42.524;27.448;2022-12-18T19:46:18;11.93;;;5.43;;
15641;SDS011;7920;42.524;27.448;2022-12-18T19:48:50;4.07;;;2.53;;
15641;SDS011;7920;42.524;27.448;2022-12-18T19:51:22;5.10;;;2.87;;
15641;SDS011;7920;42.524;27.448;2022-12-18T19:53:57;9.27;;;4.87;;
15641;SDS011;7920;42.524;27.448;2022-12-18T19:56:28;3.07;;;1.73;;
15641;SDS011;7920;42.524;27.448;2022-12-18T19:59:00;0.70;;;0.70;;
15641;SDS011;7920;42.524;27.448;2022-12-18T20:01:31;3.07;;;2.13;;
15641;SDS011;7920;42.524;27.448;2022-12-18T20:04:01;4.03;;;1.40;;
15641;SDS011;7920;42.524;27.448;2022-12-18T20:06:33;5.87;;;2.30;;
15641;SDS011;7920;42.524;27.448;2022-12-18T20:09:08;8.50;;;4.17;;
15641;SDS011;7920;42.524;27.448;2022-12-18T20:11:39;2.97;;;1.77;;
15641;SDS011;7920;42.524;27.448;2022-12-18T20:14:09;11.03;;;5.37;;
15641;SDS011;7920;42.524;27.448;2022-12-18T20:16:48;11.77;;;6.10;;
15641;SDS011;7920;42.524;27.448;2022-12-18T20:19:39;8.63;;;5.40;;
15641;SDS011;7920;42.524;27.448;2022-12-18T20:22:09;3.67;;;3.33;;
15641;SDS011;7920;42.524;27.448;2022-12-18T20:24:42;12.57;;;5.17;;
15641;SDS011;7920;42.524;27.448;2022-12-18T20:27:14;3.20;;;3.03;;
15641;SDS011;7920;42.524;27.448;2022-12-18T20:29:45;4.90;;;1.20;;
15641;SDS011;7920;42.524;27.448;2022-12-18T20:32:15;5.33;;;3.87;;
15641;SDS011;7920;42.524;27.448;2022-12-18T20:34:45;15.00;;;4.90;;
15641;SDS011;7920;42.524;27.448;2022-12-18T20:37:16;4.20;;;3.37;;
15641;SDS011;7920;42.524;27.448;2022-12-18T20:39:49;7.23;;;5.00;;
15641;SDS011;7920;42.524;27.448;2022-12-18T20:42:19;7.20;;;4.33;;
15641;SDS011;7920;42.524;27.448;2022-12-18T20:44:49;1.10;;;0.90;;
15641;SDS011;7920;42.524;27.448;2022-12-18T20:47:19;5.90;;;2.23;;
15641;SDS011;7920;42.524;27.448;2022-12-18T20:49:50;3.57;;;2.63;;
15641;SDS011;7920;42.524;27.448;2022-12-18T20:52:20;2.43;;;2.00;;
15641;SDS011;7920;42.524;27.448;2022-12-18T20:54:53;2.83;;;1.57;;
15641;SDS011;7920;42.524;27.448;2022-12-18T20:57:25;10.47;;;2.53;;
15641;SDS011;7920;42.524;27.448;2022-12-18T20:59:56;14.57;;;7.17;;
15641;SDS011;7920;42.524;27.448;2022-12-18T21:02:26;16.07;;;8.63;;
15641;SDS011;7920;42.524;27.448;2022-12-18T21:04:56;6.17;;;4.27;;
15641;SDS011;7920;42.524;27.448;2022-12-18T21:07:27;9.47;;;5.20;;
15641;SDS011;7920;42.524;27.448;2022-12-18T21:10:07;4.03;;;2.83;;
15641;SDS011;7920;42.524;27.448;2022-12-18T21:12:38;3.83;;;2.93;;
15641;SDS011;7920;42.524;27.448;2022-12-18T21:15:28;9.17;;;5.10;;
15641;SDS011;7920;42.524;27.448;2022-12-18T21:17:58;12.73;;;4.93;;
15641;SDS011;7920;42.524;27.448;2022-12-18T21:20:28;4.57;;;3.67;;
15641;SDS011;7920;42.524;27.448;2022-12-18T21:22:59;8.73;;;5.47;;
15641;SDS011;7920;42.524;27.448;2022-12-18T21:25:45;11.23;;;5.00;;
15641;SDS011;7920;42.524;27.448;2022-12-18T21:28:21;2.00;;;1.90;;
15641;SDS011;7920;42.524;27.448;2022-12-18T21:30:51;2.90;;;2.13;;
15641;SDS011;7920;42.524;27.448;2022-12-18T21:33:21;1.50;;;1.47;;
15641;SDS011;7920;42.524;27.448;2022-12-18T21:35:52;3.20;;;2.47;;
15641;SDS011;7920;42.524;27.448;2022-12-18T21:38:22;1.33;;;1.23;;
15641;SDS011;7920;42.524;27.448;2022-12-18T21:40:55;8.77;;;2.40;;
15641;SDS011;7920;42.524;27.448;2022-12-18T21:43:25;3.53;;;2.57;;
15641;SDS011;7920;42.524;27.448;2022-12-18T21:46:08;6.83;;;3.97;;
15641;SDS011;7920;42.524;27.448;2022-12-18T21:48:38;13.13;;;6.07;;
15641;SDS011;7920;42.524;27.448;2022-12-18T21:51:09;4.40;;;3.60;;
15641;SDS011;7920;42.524;27.448;2022-12-18T21:53:39;8.93;;;3.60;;
15641;SDS011;7920;42.524;27.448;2022-12-18T21:56:13;5.23;;;3.93;;
15641;SDS011;7920;42.524;27.448;2022-12-18T21:58:43;3.70;;;2.37;;
15641;SDS011;7920;42.524;27.448;2022-12-18T22:01:22;10.63;;;4.40;;
15641;SDS011;7920;42.524;27.448;2022-12-18T22:04:03;2.03;;;1.07;;
15641;SDS011;7920;42.524;27.448;2022-12-18T22:06:33;2.20;;;2.00;;
15641;SDS011;7920;42.524;27.448;2022-12-18T22:09:04;0.30;;;0.30;;
15641;SDS011;7920;42.524;27.448;2022-12-18T22:11:38;1.23;;;1.17;;
15641;SDS011;7920;42.524;27.448;2022-12-18T22:14:08;2.20;;;1.50;;
15641;SDS011;7920;42.524;27.448;2022-12-18T22:16:39;2.63;;;1.13;;
15641;SDS011;7920;42.524;27.448;2022-12-18T22:19:10;6.80;;;3.23;;
15641;SDS011;7920;42.524;27.448;2022-12-18T22:21:41;1.17;;;1.17;;
15641;SDS011;7920;42.524;27.448;2022-12-18T22:24:13;2.00;;;1.90;;
15641;SDS011;7920;42.524;27.448;2022-12-18T22:26:48;2.10;;;2.00;;
15641;SDS011;7920;42.524;27.448;2022-12-18T22:29:27;1.83;;;1.70;;
15641;SDS011;7920;42.524;27.448;2022-12-18T22:32:10;2.83;;;1.97;;
15641;SDS011;7920;42.524;27.448;2022-12-18T22:34:57;0.70;;;0.43;;
15641;SDS011;7920;42.524;27.448;2022-12-18T22:37:35;0.90;;;0.90;;
15641;SDS011;7920;42.524;27.448;2022-12-18T22:40:06;1.07;;;1.07;;
15641;SDS011;7920;42.524;27.448;2022-12-18T22:42:45;1.57;;;1.47;;
15641;SDS011;7920;42.524;27.448;2022-12-18T22:45:16;6.00;;;2.43;;
15641;SDS011;7920;42.524;27.448;2022-12-18T22:47:46;0.50;;;0.50;;
15641;SDS011;7920;42.524;27.448;2022-12-18T22:50:17;2.47;;;1.40;;
15641;SDS011;7920;42.524;27.448;2022-12-18T22:52:47;0.50;;;0.50;;
15641;SDS011;7920;42.524;27.448;2022-12-18T22:55:17;0.10;;;0.10;;
15641;SDS011;7920;42.524;27.448;2022-12-18T22:57:50;0.97;;;0.97;;
15641;SDS011;7920;42.524;27.448;2022-12-18T23:00:21;1.87;;;1.77;;
15641;SDS011;7920;42.524;27.448;2022-12-18T23:02:51;1.70;;;1.60;;
15641;SDS011;7920;42.524;27.448;2022-12-18T23:05:27;3.57;;;1.87;;
15641;SDS011;7920;42.524;27.448;2022-12-18T23:07:58;2.50;;;1.60;;
15641;SDS011;7920;42.524;27.448;2022-12-18T23:10:28;0.87;;;0.87;;
15641;SDS011;7920;42.524;27.448;2022-12-18T23:13:01;5.03;;;1.90;;
15641;SDS011;7920;42.524;27.448;2022-12-18T23:15:31;2.13;;;1.93;;
15641;SDS011;7920;42.524;27.448;2022-12-18T23:18:02;3.87;;;2.67;;
15641;SDS011;7920;42.524;27.448;2022-12-18T23:20:34;1.97;;;1.03;;
15641;SDS011;7920;42.524;27.448;2022-12-18T23:23:05;8.90;;;3.10;;
15641;SDS011;7920;42.524;27.448;2022-12-18T23:25:35;4.53;;;1.90;;
15641;SDS011;7920;42.524;27.448;2022-12-18T23:28:08;2.37;;;1.43;;
15641;SDS011;7920;42.524;27.448;2022-12-18T23:30:38;3.07;;;1.90;;
15641;SDS011;7920;42.524;27.448;2022-12-18T23:33:08;3.60;;;2.27;;
15641;SDS011;7920;42.524;27.448;2022-12-18T23:35:39;5.57;;;1.40;;
15641;SDS011;7920;42.524;27.448;2022-12-18T23:38:09;6.30;;;3.70;;
15641;SDS011;7920;42.524;27.448;2022-12-18T23:40:39;0.33;;;0.33;;
15641;SDS011;7920;42.524;27.448;2022-12-18T23:43:13;13.13;;;5.17;;
15641;SDS011;7920;42.524;27.448;2022-12-18T23:45:44;0.93;;;0.70;;
15641;SDS011;7920;42.524;27.448;2022-12-18T23:48:21;2.23;;;1.60;;
15641;SDS011;7920;42.524;27.448;2022-12-18T23:50:51;1.50;;;1.40;;
15641;SDS011;7920;42.524;27.448;2022-12-18T23:53:21;0.67;;;0.67;;
15641;SDS011;7920;42.524;27.448;2022-12-18T23:55:51;1.60;;;1.50;;
15641;SDS011;7920;42.524;27.448;2022-12-18T23:58:25;2.87;;;1.30;;
